sensor_id;sensor_type;location;lat;lon;timestamp;P1;durP1;ratioP1;P2;durP2;ratioP2
68976;SDS011;56029;52.568;13.588;2022-11-15T00:01:52;50.13;;;22.03;;
68976;SDS011;56029;52.568;13.588;2022-11-15T00:04:18;52.53;;;22.07;;
68976;SDS011;56029;52.568;13.588;2022-11-15T00:06:43;51.47;;;21.20;;
68976;SDS011;56029;52.568;13.588;2022-11-15T00:09:09;46.20;;;20.60;;
68976;SDS011;56029;52.568;13.588;2022-11-15T00:11:34;50.30;;;20.80;;
68976;SDS011;56029;52.568;13.588;2022-11-15T00:14:00;52.38;;;22.20;;
68976;SDS011;56029;52.568;13.588;2022-11-15T00:16:27;47.40;;;22.13;;
68976;SDS011;56029;52.568;13.588;2022-11-15T00:18:53;52.20;;;21.50;;
68976;SDS011;56029;52.568;13.588;2022-11-15T00:21:18;48.75;;;21.98;;
68976;SDS011;56029;52.568;13.588;2022-11-15T00:23:44;50.47;;;21.77;;
68976;SDS011;56029;52.568;13.588;2022-11-15T00:26:13;50.75;;;22.10;;
68976;SDS011;56029;52.568;13.588;2022-11-15T00:28:40;52.60;;;22.17;;
68976;SDS011;56029;52.568;13.588;2022-11-15T00:31:08;51.03;;;22.42;;
68976;SDS011;56029;52.568;13.588;2022-11-15T00:33:37;52.10;;;21.30;;
68976;SDS011;56029;52.568;13.588;2022-11-15T00:36:03;49.17;;;21.02;;
68976;SDS011;56029;52.568;13.588;2022-11-15T00:38:35;49.78;;;20.98;;
68976;SDS011;56029;52.568;13.588;2022-11-15T00:41:02;51.40;;;22.50;;
68976;SDS011;56029;52.568;13.588;2022-11-15T00:43:29;48.20;;;20.97;;
68976;SDS011;56029;52.568;13.588;2022-11-15T00:45:54;49.17;;;21.95;;
68976;SDS011;56029;52.568;13.588;2022-11-15T00:48:20;49.03;;;21.37;;
68976;SDS011;56029;52.568;13.588;2022-11-15T00:50:45;47.60;;;20.60;;
68976;SDS011;56029;52.568;13.588;2022-11-15T00:53:11;45.73;;;20.43;;
68976;SDS011;56029;52.568;13.588;2022-11-15T00:55:37;50.73;;;20.77;;
68976;SDS011;56029;52.568;13.588;2022-11-15T00:58:02;46.22;;;20.25;;
68976;SDS011;56029;52.568;13.588;2022-11-15T01:00:28;48.20;;;20.90;;
68976;SDS011;56029;52.568;13.588;2022-11-15T01:02:54;48.42;;;21.55;;
68976;SDS011;56029;52.568;13.588;2022-11-15T01:05:19;55.20;;;22.43;;
68976;SDS011;56029;52.568;13.588;2022-11-15T01:07:45;50.70;;;21.45;;
68976;SDS011;56029;52.568;13.588;2022-11-15T01:10:14;52.30;;;22.77;;
68976;SDS011;56029;52.568;13.588;2022-11-15T01:12:39;56.83;;;23.42;;
68976;SDS011;56029;52.568;13.588;2022-11-15T01:15:05;60.63;;;24.70;;
68976;SDS011;56029;52.568;13.588;2022-11-15T01:17:31;59.63;;;23.67;;
68976;SDS011;56029;52.568;13.588;2022-11-15T01:19:56;62.00;;;23.83;;
68976;SDS011;56029;52.568;13.588;2022-11-15T01:22:22;58.73;;;24.50;;
68976;SDS011;56029;52.568;13.588;2022-11-15T01:24:51;57.17;;;24.13;;
68976;SDS011;56029;52.568;13.588;2022-11-15T01:27:17;64.93;;;25.30;;
68976;SDS011;56029;52.568;13.588;2022-11-15T01:29:42;68.10;;;25.93;;
68976;SDS011;56029;52.568;13.588;2022-11-15T01:32:08;63.80;;;25.50;;
68976;SDS011;56029;52.568;13.588;2022-11-15T01:34:33;62.70;;;23.93;;
68976;SDS011;56029;52.568;13.588;2022-11-15T01:36:59;58.20;;;23.40;;
68976;SDS011;56029;52.568;13.588;2022-11-15T01:39:25;61.03;;;24.80;;
68976;SDS011;56029;52.568;13.588;2022-11-15T01:41:51;63.15;;;25.20;;
68976;SDS011;56029;52.568;13.588;2022-11-15T01:47:21;61.75;;;24.67;;
68976;SDS011;56029;52.568;13.588;2022-11-15T01:49:55;61.50;;;24.38;;
68976;SDS011;56029;52.568;13.588;2022-11-15T01:52:22;63.45;;;25.00;;
68976;SDS011;56029;52.568;13.588;2022-11-15T01:54:53;64.22;;;25.60;;
68976;SDS011;56029;52.568;13.588;2022-11-15T01:57:24;62.53;;;24.23;;
68976;SDS011;56029;52.568;13.588;2022-11-15T01:59:49;59.70;;;24.10;;
68976;SDS011;56029;52.568;13.588;2022-11-15T02:02:15;64.63;;;24.73;;
68976;SDS011;56029;52.568;13.588;2022-11-15T02:04:42;64.77;;;24.73;;
68976;SDS011;56029;52.568;13.588;2022-11-15T02:07:10;64.68;;;24.23;;
68976;SDS011;56029;52.568;13.588;2022-11-15T02:09:38;61.05;;;24.20;;
68976;SDS011;56029;52.568;13.588;2022-11-15T02:12:05;62.05;;;24.05;;
68976;SDS011;56029;52.568;13.588;2022-11-15T02:14:33;62.50;;;24.55;;
68976;SDS011;56029;52.568;13.588;2022-11-15T02:20:08;59.15;;;23.67;;
68976;SDS011;56029;52.568;13.588;2022-11-15T02:26:06;59.92;;;23.95;;
68976;SDS011;56029;52.568;13.588;2022-11-15T02:31:51;61.63;;;23.30;;
68976;SDS011;56029;52.568;13.588;2022-11-15T02:37:44;58.92;;;24.73;;
68976;SDS011;56029;52.568;13.588;2022-11-15T02:42:53;62.65;;;24.05;;
68976;SDS011;56029;52.568;13.588;2022-11-15T02:45:43;61.77;;;23.60;;
68976;SDS011;56029;52.568;13.588;2022-11-15T02:48:13;60.15;;;23.67;;
68976;SDS011;56029;52.568;13.588;2022-11-15T02:50:40;63.00;;;24.98;;
68976;SDS011;56029;52.568;13.588;2022-11-15T02:53:08;66.88;;;24.92;;
68976;SDS011;56029;52.568;13.588;2022-11-15T02:55:38;66.07;;;25.17;;
68976;SDS011;56029;52.568;13.588;2022-11-15T03:01:00;56.92;;;23.05;;
68976;SDS011;56029;52.568;13.588;2022-11-15T03:06:41;58.05;;;24.27;;
68976;SDS011;56029;52.568;13.588;2022-11-15T03:09:18;60.13;;;24.35;;
68976;SDS011;56029;52.568;13.588;2022-11-15T03:12:05;61.87;;;25.00;;
68976;SDS011;56029;52.568;13.588;2022-11-15T03:14:36;65.22;;;24.63;;
68976;SDS011;56029;52.568;13.588;2022-11-15T03:19:46;60.67;;;24.13;;
68976;SDS011;56029;52.568;13.588;2022-11-15T03:22:20;62.92;;;24.00;;
68976;SDS011;56029;52.568;13.588;2022-11-15T03:24:50;64.13;;;24.57;;
68976;SDS011;56029;52.568;13.588;2022-11-15T03:27:19;60.53;;;23.95;;
68976;SDS011;56029;52.568;13.588;2022-11-15T03:29:50;59.97;;;24.25;;
68976;SDS011;56029;52.568;13.588;2022-11-15T03:32:21;62.33;;;24.23;;
68976;SDS011;56029;52.568;13.588;2022-11-15T03:34:50;63.35;;;24.48;;
68976;SDS011;56029;52.568;13.588;2022-11-15T03:37:22;67.33;;;25.20;;
68976;SDS011;56029;52.568;13.588;2022-11-15T03:39:51;65.85;;;24.63;;
68976;SDS011;56029;52.568;13.588;2022-11-15T03:42:26;59.05;;;24.25;;
68976;SDS011;56029;52.568;13.588;2022-11-15T03:45:01;59.88;;;24.15;;
68976;SDS011;56029;52.568;13.588;2022-11-15T03:47:39;66.20;;;24.53;;
68976;SDS011;56029;52.568;13.588;2022-11-15T03:50:10;61.75;;;24.63;;
68976;SDS011;56029;52.568;13.588;2022-11-15T03:52:38;62.88;;;24.88;;
68976;SDS011;56029;52.568;13.588;2022-11-15T03:55:06;59.88;;;23.77;;
68976;SDS011;56029;52.568;13.588;2022-11-15T03:57:34;64.25;;;25.30;;
68976;SDS011;56029;52.568;13.588;2022-11-15T03:59:59;58.27;;;24.43;;
68976;SDS011;56029;52.568;13.588;2022-11-15T04:02:25;63.30;;;24.77;;
68976;SDS011;56029;52.568;13.588;2022-11-15T04:04:51;64.15;;;25.13;;
68976;SDS011;56029;52.568;13.588;2022-11-15T04:07:16;62.37;;;23.70;;
68976;SDS011;56029;52.568;13.588;2022-11-15T04:09:42;57.57;;;23.10;;
68976;SDS011;56029;52.568;13.588;2022-11-15T04:12:26;61.78;;;24.90;;
68976;SDS011;56029;52.568;13.588;2022-11-15T04:17:37;62.35;;;24.00;;
68976;SDS011;56029;52.568;13.588;2022-11-15T04:20:21;62.07;;;23.40;;
68976;SDS011;56029;52.568;13.588;2022-11-15T04:23:09;63.13;;;23.80;;
68976;SDS011;56029;52.568;13.588;2022-11-15T04:26:13;57.22;;;22.92;;
68976;SDS011;56029;52.568;13.588;2022-11-15T04:28:41;58.13;;;23.10;;
68976;SDS011;56029;52.568;13.588;2022-11-15T04:31:26;58.35;;;23.23;;
68976;SDS011;56029;52.568;13.588;2022-11-15T04:33:52;57.80;;;23.53;;
68976;SDS011;56029;52.568;13.588;2022-11-15T04:36:18;57.40;;;24.08;;
68976;SDS011;56029;52.568;13.588;2022-11-15T04:39:03;59.90;;;23.63;;
68976;SDS011;56029;52.568;13.588;2022-11-15T04:41:28;61.23;;;23.87;;
68976;SDS011;56029;52.568;13.588;2022-11-15T04:43:54;61.60;;;23.70;;
68976;SDS011;56029;52.568;13.588;2022-11-15T04:46:20;60.67;;;23.20;;
68976;SDS011;56029;52.568;13.588;2022-11-15T04:48:47;58.97;;;23.85;;
68976;SDS011;56029;52.568;13.588;2022-11-15T04:51:12;57.70;;;24.17;;
68976;SDS011;56029;52.568;13.588;2022-11-15T04:53:38;58.30;;;23.30;;
68976;SDS011;56029;52.568;13.588;2022-11-15T04:56:03;57.60;;;23.87;;
68976;SDS011;56029;52.568;13.588;2022-11-15T04:58:29;64.40;;;23.77;;
68976;SDS011;56029;52.568;13.588;2022-11-15T05:00:54;60.17;;;23.97;;
68976;SDS011;56029;52.568;13.588;2022-11-15T05:03:20;60.05;;;22.88;;
68976;SDS011;56029;52.568;13.588;2022-11-15T05:06:05;66.87;;;25.43;;
68976;SDS011;56029;52.568;13.588;2022-11-15T05:08:30;68.28;;;25.45;;
68976;SDS011;56029;52.568;13.588;2022-11-15T05:10:57;65.32;;;24.38;;
68976;SDS011;56029;52.568;13.588;2022-11-15T05:13:22;65.27;;;25.73;;
68976;SDS011;56029;52.568;13.588;2022-11-15T05:15:48;67.90;;;24.50;;
68976;SDS011;56029;52.568;13.588;2022-11-15T05:18:13;68.93;;;26.33;;
68976;SDS011;56029;52.568;13.588;2022-11-15T05:20:39;64.17;;;24.43;;
68976;SDS011;56029;52.568;13.588;2022-11-15T05:23:04;64.05;;;24.88;;
68976;SDS011;56029;52.568;13.588;2022-11-15T05:25:30;65.33;;;23.37;;
68976;SDS011;56029;52.568;13.588;2022-11-15T05:27:56;66.28;;;25.05;;
68976;SDS011;56029;52.568;13.588;2022-11-15T05:30:21;59.30;;;23.33;;
68976;SDS011;56029;52.568;13.588;2022-11-15T05:32:47;59.13;;;23.77;;
68976;SDS011;56029;52.568;13.588;2022-11-15T05:35:17;61.00;;;24.10;;
68976;SDS011;56029;52.568;13.588;2022-11-15T05:37:47;61.83;;;24.40;;
68976;SDS011;56029;52.568;13.588;2022-11-15T05:40:13;63.40;;;24.05;;
68976;SDS011;56029;52.568;13.588;2022-11-15T05:42:39;57.85;;;22.88;;
68976;SDS011;56029;52.568;13.588;2022-11-15T05:45:05;58.20;;;23.23;;
68976;SDS011;56029;52.568;13.588;2022-11-15T05:47:32;57.40;;;23.02;;
68976;SDS011;56029;52.568;13.588;2022-11-15T05:50:00;53.45;;;22.42;;
68976;SDS011;56029;52.568;13.588;2022-11-15T05:52:27;52.43;;;22.33;;
68976;SDS011;56029;52.568;13.588;2022-11-15T05:54:56;57.75;;;23.20;;
68976;SDS011;56029;52.568;13.588;2022-11-15T05:57:23;48.65;;;20.52;;
68976;SDS011;56029;52.568;13.588;2022-11-15T05:59:49;55.22;;;22.67;;
68976;SDS011;56029;52.568;13.588;2022-11-15T06:02:15;47.40;;;20.37;;
68976;SDS011;56029;52.568;13.588;2022-11-15T06:04:40;49.33;;;21.20;;
68976;SDS011;56029;52.568;13.588;2022-11-15T06:07:06;48.00;;;20.50;;
68976;SDS011;56029;52.568;13.588;2022-11-15T06:09:31;55.27;;;22.03;;
68976;SDS011;56029;52.568;13.588;2022-11-15T06:11:57;49.85;;;20.52;;
68976;SDS011;56029;52.568;13.588;2022-11-15T06:14:22;48.73;;;20.83;;
68976;SDS011;56029;52.568;13.588;2022-11-15T06:16:48;50.30;;;20.02;;
68976;SDS011;56029;52.568;13.588;2022-11-15T06:19:13;55.17;;;22.67;;
68976;SDS011;56029;52.568;13.588;2022-11-15T06:21:39;48.10;;;22.00;;
68976;SDS011;56029;52.568;13.588;2022-11-15T06:24:05;50.73;;;21.77;;
68976;SDS011;56029;52.568;13.588;2022-11-15T06:26:31;48.92;;;20.80;;
68976;SDS011;56029;52.568;13.588;2022-11-15T06:28:57;46.43;;;19.90;;
68976;SDS011;56029;52.568;13.588;2022-11-15T06:31:22;47.65;;;19.38;;
68976;SDS011;56029;52.568;13.588;2022-11-15T06:33:48;46.07;;;19.93;;
68976;SDS011;56029;52.568;13.588;2022-11-15T06:36:14;45.58;;;19.30;;
68976;SDS011;56029;52.568;13.588;2022-11-15T06:38:42;41.92;;;18.52;;
68976;SDS011;56029;52.568;13.588;2022-11-15T06:41:10;47.45;;;18.77;;
68976;SDS011;56029;52.568;13.588;2022-11-15T06:43:37;44.85;;;20.13;;
68976;SDS011;56029;52.568;13.588;2022-11-15T06:46:04;49.27;;;20.67;;
68976;SDS011;56029;52.568;13.588;2022-11-15T06:48:31;53.97;;;21.30;;
68976;SDS011;56029;52.568;13.588;2022-11-15T06:50:58;52.97;;;22.27;;
68976;SDS011;56029;52.568;13.588;2022-11-15T06:53:25;51.97;;;21.20;;
68976;SDS011;56029;52.568;13.588;2022-11-15T06:55:51;52.13;;;22.35;;
68976;SDS011;56029;52.568;13.588;2022-11-15T06:58:17;53.90;;;22.43;;
68976;SDS011;56029;52.568;13.588;2022-11-15T07:00:45;57.13;;;22.83;;
68976;SDS011;56029;52.568;13.588;2022-11-15T07:03:11;57.00;;;22.30;;
68976;SDS011;56029;52.568;13.588;2022-11-15T07:05:37;56.17;;;24.00;;
68976;SDS011;56029;52.568;13.588;2022-11-15T07:08:02;55.50;;;23.92;;
68976;SDS011;56029;52.568;13.588;2022-11-15T07:10:29;57.13;;;23.20;;
68976;SDS011;56029;52.568;13.588;2022-11-15T07:12:55;57.53;;;23.65;;
68976;SDS011;56029;52.568;13.588;2022-11-15T07:15:22;54.83;;;22.73;;
68976;SDS011;56029;52.568;13.588;2022-11-15T07:17:49;55.35;;;22.45;;
68976;SDS011;56029;52.568;13.588;2022-11-15T07:20:16;53.70;;;22.33;;
68976;SDS011;56029;52.568;13.588;2022-11-15T07:22:42;60.80;;;23.90;;
68976;SDS011;56029;52.568;13.588;2022-11-15T07:25:10;54.88;;;24.05;;
68976;SDS011;56029;52.568;13.588;2022-11-15T07:27:36;57.20;;;22.90;;
68976;SDS011;56029;52.568;13.588;2022-11-15T07:30:02;53.75;;;23.05;;
68976;SDS011;56029;52.568;13.588;2022-11-15T07:32:29;57.07;;;23.17;;
68976;SDS011;56029;52.568;13.588;2022-11-15T07:34:55;57.67;;;23.63;;
68976;SDS011;56029;52.568;13.588;2022-11-15T07:37:20;59.23;;;22.87;;
68976;SDS011;56029;52.568;13.588;2022-11-15T07:39:46;55.90;;;23.23;;
68976;SDS011;56029;52.568;13.588;2022-11-15T07:42:11;54.57;;;23.10;;
68976;SDS011;56029;52.568;13.588;2022-11-15T07:44:55;54.38;;;22.98;;
68976;SDS011;56029;52.568;13.588;2022-11-15T07:47:21;59.87;;;23.73;;
68976;SDS011;56029;52.568;13.588;2022-11-15T07:49:46;58.80;;;24.03;;
68976;SDS011;56029;52.568;13.588;2022-11-15T07:52:12;63.07;;;25.03;;
68976;SDS011;56029;52.568;13.588;2022-11-15T07:54:38;61.75;;;24.08;;
68976;SDS011;56029;52.568;13.588;2022-11-15T07:57:04;61.03;;;24.63;;
68976;SDS011;56029;52.568;13.588;2022-11-15T07:59:31;61.13;;;24.42;;
68976;SDS011;56029;52.568;13.588;2022-11-15T08:01:56;63.17;;;24.23;;
68976;SDS011;56029;52.568;13.588;2022-11-15T08:04:22;61.90;;;25.02;;
68976;SDS011;56029;52.568;13.588;2022-11-15T08:06:47;66.27;;;24.23;;
68976;SDS011;56029;52.568;13.588;2022-11-15T08:09:13;59.97;;;24.33;;
68976;SDS011;56029;52.568;13.588;2022-11-15T08:11:38;60.17;;;24.83;;
68976;SDS011;56029;52.568;13.588;2022-11-15T08:14:04;62.50;;;25.55;;
68976;SDS011;56029;52.568;13.588;2022-11-15T08:16:29;67.70;;;25.30;;
68976;SDS011;56029;52.568;13.588;2022-11-15T08:18:55;62.13;;;25.60;;
68976;SDS011;56029;52.568;13.588;2022-11-15T08:21:21;68.63;;;25.67;;
68976;SDS011;56029;52.568;13.588;2022-11-15T08:23:47;68.00;;;27.05;;
68976;SDS011;56029;52.568;13.588;2022-11-15T08:26:13;64.63;;;25.27;;
68976;SDS011;56029;52.568;13.588;2022-11-15T08:28:38;62.27;;;25.20;;
68976;SDS011;56029;52.568;13.588;2022-11-15T08:31:04;64.07;;;25.42;;
68976;SDS011;56029;52.568;13.588;2022-11-15T08:33:30;63.30;;;25.77;;
68976;SDS011;56029;52.568;13.588;2022-11-15T08:35:57;59.57;;;24.87;;
68976;SDS011;56029;52.568;13.588;2022-11-15T08:38:23;65.05;;;25.98;;
68976;SDS011;56029;52.568;13.588;2022-11-15T08:40:52;65.07;;;25.70;;
68976;SDS011;56029;52.568;13.588;2022-11-15T08:43:24;64.13;;;26.08;;
68976;SDS011;56029;52.568;13.588;2022-11-15T08:45:50;64.73;;;25.90;;
68976;SDS011;56029;52.568;13.588;2022-11-15T08:48:15;64.50;;;25.27;;
68976;SDS011;56029;52.568;13.588;2022-11-15T08:50:41;66.40;;;26.40;;
68976;SDS011;56029;52.568;13.588;2022-11-15T08:53:09;63.70;;;25.17;;
68976;SDS011;56029;52.568;13.588;2022-11-15T08:55:38;61.63;;;25.38;;
68976;SDS011;56029;52.568;13.588;2022-11-15T08:58:04;60.30;;;26.20;;
68976;SDS011;56029;52.568;13.588;2022-11-15T09:00:30;58.90;;;25.30;;
68976;SDS011;56029;52.568;13.588;2022-11-15T09:02:56;58.17;;;24.52;;
68976;SDS011;56029;52.568;13.588;2022-11-15T09:05:21;55.73;;;24.37;;
68976;SDS011;56029;52.568;13.588;2022-11-15T09:07:47;56.15;;;23.50;;
68976;SDS011;56029;52.568;13.588;2022-11-15T09:10:12;56.47;;;24.27;;
68976;SDS011;56029;52.568;13.588;2022-11-15T09:12:38;57.80;;;24.67;;
68976;SDS011;56029;52.568;13.588;2022-11-15T09:15:04;57.53;;;24.00;;
68976;SDS011;56029;52.568;13.588;2022-11-15T09:17:30;52.25;;;24.52;;
68976;SDS011;56029;52.568;13.588;2022-11-15T09:19:56;55.70;;;23.57;;
68976;SDS011;56029;52.568;13.588;2022-11-15T09:22:22;50.83;;;23.13;;
68976;SDS011;56029;52.568;13.588;2022-11-15T09:24:47;50.28;;;23.73;;
68976;SDS011;56029;52.568;13.588;2022-11-15T09:27:13;48.37;;;23.07;;
68976;SDS011;56029;52.568;13.588;2022-11-15T09:29:38;49.10;;;22.70;;
68976;SDS011;56029;52.568;13.588;2022-11-15T09:32:04;46.35;;;21.10;;
68976;SDS011;56029;52.568;13.588;2022-11-15T09:34:30;46.47;;;21.92;;
68976;SDS011;56029;52.568;13.588;2022-11-15T09:36:56;45.20;;;21.40;;
68976;SDS011;56029;52.568;13.588;2022-11-15T09:39:21;44.60;;;20.80;;
68976;SDS011;56029;52.568;13.588;2022-11-15T09:45:06;41.58;;;20.23;;
68976;SDS011;56029;52.568;13.588;2022-11-15T09:50:28;42.08;;;20.80;;
68976;SDS011;56029;52.568;13.588;2022-11-15T09:52:58;40.43;;;19.43;;
68976;SDS011;56029;52.568;13.588;2022-11-15T09:55:28;41.50;;;19.65;;
68976;SDS011;56029;52.568;13.588;2022-11-15T09:58:41;39.38;;;19.75;;
68976;SDS011;56029;52.568;13.588;2022-11-15T10:01:16;39.83;;;19.50;;
68976;SDS011;56029;52.568;13.588;2022-11-15T10:03:50;39.60;;;18.70;;
68976;SDS011;56029;52.568;13.588;2022-11-15T10:06:23;37.85;;;18.77;;
68976;SDS011;56029;52.568;13.588;2022-11-15T10:08:52;40.00;;;19.47;;
68976;SDS011;56029;52.568;13.588;2022-11-15T10:11:40;38.00;;;18.67;;
68976;SDS011;56029;52.568;13.588;2022-11-15T10:14:18;36.22;;;18.15;;
68976;SDS011;56029;52.568;13.588;2022-11-15T10:22:24;37.23;;;16.77;;
68976;SDS011;56029;52.568;13.588;2022-11-15T10:27:28;33.42;;;17.63;;
68976;SDS011;56029;52.568;13.588;2022-11-15T10:29:54;36.10;;;16.93;;
68976;SDS011;56029;52.568;13.588;2022-11-15T10:32:20;34.08;;;17.05;;
68976;SDS011;56029;52.568;13.588;2022-11-15T10:34:47;34.10;;;17.13;;
68976;SDS011;56029;52.568;13.588;2022-11-15T10:37:13;35.40;;;17.90;;
68976;SDS011;56029;52.568;13.588;2022-11-15T10:39:39;31.98;;;16.63;;
68976;SDS011;56029;52.568;13.588;2022-11-15T10:42:15;32.80;;;16.97;;
68976;SDS011;56029;52.568;13.588;2022-11-15T10:44:53;35.28;;;17.63;;
68976;SDS011;56029;52.568;13.588;2022-11-15T10:47:20;38.90;;;19.80;;
68976;SDS011;56029;52.568;13.588;2022-11-15T10:50:01;39.20;;;20.85;;
68976;SDS011;56029;52.568;13.588;2022-11-15T10:52:33;31.17;;;16.67;;
68976;SDS011;56029;52.568;13.588;2022-11-15T10:55:02;38.63;;;17.13;;
68976;SDS011;56029;52.568;13.588;2022-11-15T10:57:32;33.75;;;17.25;;
68976;SDS011;56029;52.568;13.588;2022-11-15T11:00:02;30.67;;;16.15;;
68976;SDS011;56029;52.568;13.588;2022-11-15T11:02:37;37.00;;;16.50;;
68976;SDS011;56029;52.568;13.588;2022-11-15T11:05:37;30.83;;;16.37;;
68976;SDS011;56029;52.568;13.588;2022-11-15T11:08:16;31.00;;;16.67;;
68976;SDS011;56029;52.568;13.588;2022-11-15T11:10:57;32.28;;;17.38;;
68976;SDS011;56029;52.568;13.588;2022-11-15T11:18:32;30.53;;;16.23;;
68976;SDS011;56029;52.568;13.588;2022-11-15T11:21:03;30.92;;;16.17;;
68976;SDS011;56029;52.568;13.588;2022-11-15T11:23:53;28.27;;;14.75;;
68976;SDS011;56029;52.568;13.588;2022-11-15T11:26:34;26.60;;;14.90;;
68976;SDS011;56029;52.568;13.588;2022-11-15T11:29:35;28.80;;;15.52;;
68976;SDS011;56029;52.568;13.588;2022-11-15T11:32:19;27.73;;;15.20;;
68976;SDS011;56029;52.568;13.588;2022-11-15T11:34:58;26.75;;;14.65;;
68976;SDS011;56029;52.568;13.588;2022-11-15T11:37:45;26.38;;;14.73;;
68976;SDS011;56029;52.568;13.588;2022-11-15T11:40:37;28.13;;;14.23;;
68976;SDS011;56029;52.568;13.588;2022-11-15T11:51:32;28.65;;;14.52;;
68976;SDS011;56029;52.568;13.588;2022-11-15T11:56:36;27.48;;;14.32;;
68976;SDS011;56029;52.568;13.588;2022-11-15T11:59:10;26.50;;;14.37;;
68976;SDS011;56029;52.568;13.588;2022-11-15T12:01:42;28.05;;;13.98;;
68976;SDS011;56029;52.568;13.588;2022-11-15T12:04:16;25.10;;;14.13;;
68976;SDS011;56029;52.568;13.588;2022-11-15T12:11:48;26.20;;;14.60;;
68976;SDS011;56029;52.568;13.588;2022-11-15T12:17:27;26.05;;;13.45;;
68976;SDS011;56029;52.568;13.588;2022-11-15T12:19:58;26.30;;;14.80;;
68976;SDS011;56029;52.568;13.588;2022-11-15T12:22:29;23.33;;;12.70;;
68976;SDS011;56029;52.568;13.588;2022-11-15T12:27:33;23.65;;;13.75;;
68976;SDS011;56029;52.568;13.588;2022-11-15T12:30:08;23.25;;;13.48;;
68976;SDS011;56029;52.568;13.588;2022-11-15T12:32:38;24.38;;;13.52;;
68976;SDS011;56029;52.568;13.588;2022-11-15T12:35:06;22.50;;;12.60;;
68976;SDS011;56029;52.568;13.588;2022-11-15T12:37:59;23.63;;;12.23;;
68976;SDS011;56029;52.568;13.588;2022-11-15T12:40:35;25.30;;;13.35;;
68976;SDS011;56029;52.568;13.588;2022-11-15T12:45:38;23.17;;;12.70;;
68976;SDS011;56029;52.568;13.588;2022-11-15T12:56:08;22.70;;;12.38;;
68976;SDS011;56029;52.568;13.588;2022-11-15T12:58:41;21.27;;;11.57;;
68976;SDS011;56029;52.568;13.588;2022-11-15T13:12:02;23.23;;;12.13;;
68976;SDS011;56029;52.568;13.588;2022-11-15T13:30:59;21.30;;;12.13;;
68976;SDS011;56029;52.568;13.588;2022-11-15T13:35:57;21.23;;;12.23;;
68976;SDS011;56029;52.568;13.588;2022-11-15T13:40:52;24.75;;;12.98;;
68976;SDS011;56029;52.568;13.588;2022-11-15T13:49:02;24.80;;;13.65;;
68976;SDS011;56029;52.568;13.588;2022-11-15T13:51:49;24.03;;;12.77;;
68976;SDS011;56029;52.568;13.588;2022-11-15T13:54:20;25.70;;;13.02;;
68976;SDS011;56029;52.568;13.588;2022-11-15T13:56:54;21.90;;;12.65;;
68976;SDS011;56029;52.568;13.588;2022-11-15T13:59:33;24.38;;;12.95;;
68976;SDS011;56029;52.568;13.588;2022-11-15T14:02:15;23.08;;;13.23;;
68976;SDS011;56029;52.568;13.588;2022-11-15T14:04:46;23.60;;;12.77;;
68976;SDS011;56029;52.568;13.588;2022-11-15T14:07:19;22.52;;;12.88;;
68976;SDS011;56029;52.568;13.588;2022-11-15T14:09:47;24.55;;;12.82;;
68976;SDS011;56029;52.568;13.588;2022-11-15T14:12:26;24.77;;;13.63;;
68976;SDS011;56029;52.568;13.588;2022-11-15T14:14:57;25.05;;;13.80;;
68976;SDS011;56029;52.568;13.588;2022-11-15T14:19:53;22.55;;;13.20;;
68976;SDS011;56029;52.568;13.588;2022-11-15T14:24:46;21.23;;;12.80;;
68976;SDS011;56029;52.568;13.588;2022-11-15T14:27:33;24.42;;;14.00;;
68976;SDS011;56029;52.568;13.588;2022-11-15T14:29:59;24.17;;;13.52;;
68976;SDS011;56029;52.568;13.588;2022-11-15T14:32:28;23.52;;;14.27;;
68976;SDS011;56029;52.568;13.588;2022-11-15T14:35:02;24.33;;;13.88;;
68976;SDS011;56029;52.568;13.588;2022-11-15T14:37:30;25.07;;;13.67;;
68976;SDS011;56029;52.568;13.588;2022-11-15T14:39:59;24.45;;;13.80;;
68976;SDS011;56029;52.568;13.588;2022-11-15T14:42:26;25.63;;;14.43;;
68976;SDS011;56029;52.568;13.588;2022-11-15T14:44:52;26.67;;;15.30;;
68976;SDS011;56029;52.568;13.588;2022-11-15T14:47:18;25.80;;;15.13;;
68976;SDS011;56029;52.568;13.588;2022-11-15T14:49:44;29.20;;;16.65;;
68976;SDS011;56029;52.568;13.588;2022-11-15T14:52:26;29.98;;;18.20;;
68976;SDS011;56029;52.568;13.588;2022-11-15T14:54:53;31.23;;;18.88;;
68976;SDS011;56029;52.568;13.588;2022-11-15T14:57:20;32.97;;;19.77;;
68976;SDS011;56029;52.568;13.588;2022-11-15T14:59:46;34.20;;;20.40;;
68976;SDS011;56029;52.568;13.588;2022-11-15T15:02:30;29.30;;;17.53;;
68976;SDS011;56029;52.568;13.588;2022-11-15T15:04:55;28.00;;;15.00;;
68976;SDS011;56029;52.568;13.588;2022-11-15T15:07:26;29.45;;;15.98;;
68976;SDS011;56029;52.568;13.588;2022-11-15T15:09:51;27.30;;;15.00;;
68976;SDS011;56029;52.568;13.588;2022-11-15T15:12:20;24.73;;;14.10;;
68976;SDS011;56029;52.568;13.588;2022-11-15T15:14:47;28.27;;;14.90;;
68976;SDS011;56029;52.568;13.588;2022-11-15T15:17:15;26.50;;;14.70;;
68976;SDS011;56029;52.568;13.588;2022-11-15T15:19:41;28.30;;;15.07;;
68976;SDS011;56029;52.568;13.588;2022-11-15T15:22:14;26.58;;;14.15;;
68976;SDS011;56029;52.568;13.588;2022-11-15T15:24:42;27.88;;;14.40;;
68976;SDS011;56029;52.568;13.588;2022-11-15T15:27:11;28.92;;;16.02;;
68976;SDS011;56029;52.568;13.588;2022-11-15T15:29:37;29.47;;;16.87;;
68976;SDS011;56029;52.568;13.588;2022-11-15T15:32:03;34.30;;;19.48;;
68976;SDS011;56029;52.568;13.588;2022-11-15T15:34:29;31.00;;;17.88;;
68976;SDS011;56029;52.568;13.588;2022-11-15T15:39:53;31.60;;;17.85;;
68976;SDS011;56029;52.568;13.588;2022-11-15T15:42:20;32.50;;;18.13;;
68976;SDS011;56029;52.568;13.588;2022-11-15T15:44:47;37.05;;;20.30;;
68976;SDS011;56029;52.568;13.588;2022-11-15T15:47:14;34.45;;;19.33;;
68976;SDS011;56029;52.568;13.588;2022-11-15T15:49:42;34.60;;;18.93;;
68976;SDS011;56029;52.568;13.588;2022-11-15T15:52:09;36.90;;;19.08;;
68976;SDS011;56029;52.568;13.588;2022-11-15T15:54:34;36.07;;;20.20;;
68976;SDS011;56029;52.568;13.588;2022-11-15T15:57:00;34.85;;;19.08;;
68976;SDS011;56029;52.568;13.588;2022-11-15T15:59:25;36.27;;;19.50;;
68976;SDS011;56029;52.568;13.588;2022-11-15T16:01:51;38.70;;;20.80;;
68976;SDS011;56029;52.568;13.588;2022-11-15T16:04:16;36.80;;;20.50;;
68976;SDS011;56029;52.568;13.588;2022-11-15T16:06:42;40.50;;;21.33;;
68976;SDS011;56029;52.568;13.588;2022-11-15T16:09:13;35.63;;;19.73;;
68976;SDS011;56029;52.568;13.588;2022-11-15T16:11:40;38.15;;;20.75;;
68976;SDS011;56029;52.568;13.588;2022-11-15T16:14:07;38.55;;;20.95;;
68976;SDS011;56029;52.568;13.588;2022-11-15T16:16:34;39.43;;;20.47;;
68976;SDS011;56029;52.568;13.588;2022-11-15T16:19:00;43.80;;;22.17;;
68976;SDS011;56029;52.568;13.588;2022-11-15T16:21:26;41.55;;;21.85;;
68976;SDS011;56029;52.568;13.588;2022-11-15T16:23:52;45.63;;;23.38;;
68976;SDS011;56029;52.568;13.588;2022-11-15T16:26:25;43.23;;;23.57;;
68976;SDS011;56029;52.568;13.588;2022-11-15T16:28:52;45.10;;;22.90;;